createdAt,value
2018-11-11T00:00:24.119Z,22.13
2018-11-11T00:02:54.546Z,16.90
2018-11-11T00:05:24.092Z,15.67
2018-11-11T00:07:53.639Z,14.83
2018-11-11T00:10:23.260Z,19.43
2018-11-11T00:12:52.959Z,18.43
2018-11-11T00:15:29.641Z,21.90
2018-11-11T00:17:59.585Z,24.20
2018-11-11T00:20:29.332Z,17.70
2018-11-11T00:22:58.870Z,17.60
2018-11-11T00:25:28.481Z,19.20
2018-11-11T00:27:58.156Z,23.50
2018-11-11T00:30:27.612Z,23.57
2018-11-11T00:32:57.192Z,23.37
2018-11-11T00:35:27.045Z,19.63
2018-11-11T00:37:56.581Z,20.23
2018-11-11T00:40:26.133Z,25.93
2018-11-11T00:42:55.626Z,18.80
2018-11-11T00:45:25.221Z,17.70
2018-11-11T00:47:54.839Z,22.03
2018-11-11T00:50:24.332Z,20.53
2018-11-11T00:52:53.953Z,24.43
2018-11-11T00:55:23.585Z,23.87
2018-11-11T00:57:53.149Z,23.40
2018-11-11T01:00:22.861Z,17.13
2018-11-11T01:02:52.470Z,21.90
2018-11-11T01:05:21.900Z,21.20
2018-11-11T01:07:51.469Z,16.67
2018-11-11T01:10:21.001Z,15.43
2018-11-11T01:12:50.689Z,20.80
2018-11-11T01:15:20.307Z,17.77
2018-11-11T01:17:49.886Z,24.93
2018-11-11T01:20:19.532Z,29.30
2018-11-11T01:22:49.122Z,15.43
2018-11-11T01:25:19.546Z,18.70
2018-11-11T01:27:49.337Z,20.63
2018-11-11T01:30:18.974Z,21.40
2018-11-11T01:32:48.593Z,23.87
2018-11-11T01:35:18.236Z,12.80
2018-11-11T01:37:47.893Z,21.07
2018-11-11T01:40:17.738Z,17.57
2018-11-11T01:42:47.409Z,13.27
2018-11-11T01:45:19.250Z,15.70
2018-11-11T01:47:49.420Z,16.23
2018-11-11T01:50:18.942Z,22.13
2018-11-11T01:52:48.623Z,12.93
2018-11-11T01:55:18.326Z,13.23
2018-11-11T01:57:47.929Z,12.40
2018-11-11T02:00:18.437Z,18.10
2018-11-11T02:02:48.817Z,12.27
2018-11-11T02:05:18.483Z,9.63
2018-11-11T02:07:48.862Z,14.97
2018-11-11T02:10:18.432Z,12.63
2018-11-11T02:12:47.921Z,13.23
2018-11-11T02:15:18.190Z,17.80
2018-11-11T02:17:47.863Z,20.00
2018-11-11T02:20:18.715Z,14.10
2018-11-11T02:22:49.457Z,12.20
2018-11-11T02:25:19.082Z,11.43
2018-11-11T02:27:48.560Z,14.87
2018-11-11T02:30:20.246Z,18.63
2018-11-11T02:32:56.196Z,17.93
2018-11-11T02:35:25.731Z,21.77
2018-11-11T02:37:55.369Z,19.47
2018-11-11T02:40:25.116Z,17.60
2018-11-11T02:42:54.703Z,16.73
2018-11-11T02:45:24.292Z,15.23
2018-11-11T02:47:53.933Z,14.70
2018-11-11T02:50:23.538Z,12.00
2018-11-11T02:52:53.012Z,11.20
2018-11-11T02:55:22.622Z,12.77
2018-11-11T02:57:52.252Z,13.27
2018-11-11T03:00:22.174Z,13.80
2018-11-11T03:02:51.766Z,14.90
2018-11-11T03:05:21.374Z,10.30
2018-11-11T03:07:50.986Z,12.73
2018-11-11T03:10:20.604Z,14.70
2018-11-11T03:12:50.937Z,10.30
2018-11-11T03:15:21.061Z,12.33
2018-11-11T03:17:50.630Z,17.03
2018-11-11T03:20:20.324Z,7.90
2018-11-11T03:22:49.943Z,10.17
2018-11-11T03:25:19.464Z,10.30
2018-11-11T03:27:49.116Z,10.20
2018-11-11T03:30:18.912Z,7.47
2018-11-11T03:32:48.720Z,11.83
2018-11-11T03:35:18.402Z,12.53
2018-11-11T03:37:48.127Z,10.03
2018-11-11T03:40:19.196Z,8.20
2018-11-11T03:42:49.731Z,6.43
2018-11-11T03:45:20.234Z,9.33
2018-11-11T03:47:51.380Z,5.90
2018-11-11T03:50:20.864Z,5.73
2018-11-11T03:52:50.772Z,4.43
2018-11-11T03:55:20.249Z,5.80
2018-11-11T03:57:49.893Z,4.43
2018-11-11T04:00:19.331Z,4.83
2018-11-11T04:02:49.128Z,6.30
2018-11-11T04:05:18.947Z,4.73
2018-11-11T04:07:48.442Z,7.17
2018-11-11T04:10:19.117Z,4.07
2018-11-11T04:12:49.436Z,6.00
2018-11-11T04:15:20.136Z,10.10
2018-11-11T04:17:50.055Z,12.10
2018-11-11T04:20:20.704Z,5.13
2018-11-11T04:22:50.309Z,9.03
2018-11-11T04:25:20.260Z,6.90
2018-11-11T04:27:50.230Z,8.47
2018-11-11T04:30:19.688Z,18.00
2018-11-11T04:32:49.318Z,5.73
2018-11-11T04:35:19.031Z,8.47
2018-11-11T04:37:48.559Z,4.53
2018-11-11T04:40:18.073Z,5.37
2018-11-11T04:42:48.032Z,5.53
2018-11-11T04:45:17.705Z,6.00
2018-11-11T04:47:47.597Z,5.80
2018-11-11T04:50:18.121Z,7.40
2018-11-11T04:52:48.055Z,6.20
2018-11-11T04:55:17.624Z,7.83
2018-11-11T04:57:47.255Z,13.73
2018-11-11T05:00:16.953Z,6.47
2018-11-11T05:02:46.382Z,5.67
2018-11-11T05:05:16.053Z,5.60
2018-11-11T05:07:45.671Z,12.63
2018-11-11T05:10:15.269Z,5.60
2018-11-11T05:12:44.926Z,7.80
2018-11-11T05:15:15.023Z,13.17
2018-11-11T05:17:44.629Z,8.67
2018-11-11T05:20:14.545Z,6.43
2018-11-11T05:22:44.462Z,9.23
2018-11-11T05:25:15.297Z,5.00
2018-11-11T05:27:45.317Z,7.80
2018-11-11T05:30:15.425Z,6.47
2018-11-11T05:32:45.073Z,7.67
2018-11-11T05:35:14.724Z,8.60
2018-11-11T05:37:44.391Z,10.17
2018-11-11T05:40:14.492Z,7.87
2018-11-11T05:42:44.606Z,9.67
2018-11-11T05:45:15.243Z,11.90
2018-11-11T05:47:44.988Z,12.03
2018-11-11T05:50:15.893Z,17.33
2018-11-11T05:52:46.742Z,19.87
2018-11-11T05:55:16.428Z,10.00
2018-11-11T05:57:46.124Z,13.30
2018-11-11T06:00:17.125Z,13.93
2018-11-11T06:02:46.801Z,8.20
2018-11-11T06:05:16.808Z,10.30
2018-11-11T06:07:46.277Z,19.63
2018-11-11T06:10:16.542Z,13.53
2018-11-11T06:12:46.474Z,10.90
2018-11-11T06:15:16.025Z,11.87
2018-11-11T06:17:45.668Z,10.37
2018-11-11T06:20:16.516Z,13.20
2018-11-11T06:22:45.954Z,8.30
2018-11-11T06:25:15.616Z,9.50
2018-11-11T06:27:45.593Z,10.13
2018-11-11T06:30:15.086Z,22.40
2018-11-11T06:32:44.888Z,9.40
2018-11-11T06:35:14.737Z,10.80
2018-11-11T06:37:44.351Z,10.13
2018-11-11T06:40:14.393Z,11.50
2018-11-11T06:42:44.010Z,8.80
2018-11-11T06:45:14.834Z,11.47
2018-11-11T06:47:45.262Z,6.80
2018-11-11T06:50:15.612Z,11.53
2018-11-11T06:52:45.420Z,8.70
2018-11-11T06:55:21.756Z,10.23
2018-11-11T06:57:51.583Z,3.97
2018-11-11T07:00:21.155Z,6.23
2018-11-11T07:03:07.674Z,4.50
2018-11-11T07:05:37.395Z,5.50
2018-11-11T07:08:07.195Z,5.00
2018-11-11T07:10:36.786Z,9.73
2018-11-11T07:13:06.360Z,7.43
2018-11-11T07:15:35.946Z,8.10
2018-11-11T07:18:05.682Z,4.67
2018-11-11T07:20:35.233Z,3.87
2018-11-11T07:23:04.841Z,9.70
2018-11-11T07:25:34.473Z,2.60
2018-11-11T07:28:04.238Z,7.27
2018-11-11T07:30:34.085Z,3.90
2018-11-11T07:33:03.738Z,7.17
2018-11-11T07:35:33.392Z,3.23
2018-11-11T07:38:03.200Z,2.67
2018-11-11T07:40:32.854Z,5.27
2018-11-11T07:43:02.546Z,2.40
2018-11-11T07:45:32.118Z,2.70
2018-11-11T07:48:01.704Z,1.53
2018-11-11T07:50:31.355Z,2.80
2018-11-11T07:53:00.969Z,5.50
2018-11-11T07:55:30.699Z,1.30
2018-11-11T07:58:00.266Z,2.60
2018-11-11T08:00:29.896Z,2.17
2018-11-11T08:02:59.590Z,7.70
2018-11-11T08:05:29.410Z,9.53
2018-11-11T08:07:58.885Z,3.07
2018-11-11T08:10:45.132Z,2.40
2018-11-11T08:13:14.913Z,1.30
2018-11-11T08:15:44.512Z,3.17
2018-11-11T08:18:14.448Z,1.40
2018-11-11T08:20:44.165Z,1.10
2018-11-11T08:23:14.573Z,2.10
2018-11-11T08:25:44.045Z,2.00
2018-11-11T08:28:14.322Z,1.33
2018-11-11T08:30:44.022Z,4.10
2018-11-11T08:33:19.845Z,2.50
2018-11-11T08:35:49.592Z,2.90
2018-11-11T08:38:19.426Z,4.83
2018-11-11T08:40:49.036Z,3.00
2018-11-11T08:43:18.657Z,3.00
2018-11-11T08:45:48.406Z,2.83
2018-11-11T08:48:18.045Z,2.60
2018-11-11T08:50:47.637Z,5.60
2018-11-11T08:53:17.457Z,3.03
2018-11-11T08:55:47.057Z,7.03
2018-11-11T08:58:16.870Z,3.03
2018-11-11T09:00:46.571Z,7.03
2018-11-11T09:03:16.405Z,1.50
2018-11-11T09:05:46.152Z,0.90
2018-11-11T09:08:15.740Z,3.03
2018-11-11T09:10:45.479Z,1.10
2018-11-11T09:13:15.041Z,0.90
2018-11-11T09:15:44.536Z,3.80
2018-11-11T09:18:14.141Z,2.10
2018-11-11T09:20:43.877Z,5.43
2018-11-11T09:23:13.558Z,4.73
2018-11-11T09:25:43.176Z,3.33
2018-11-11T09:28:12.834Z,1.00
2018-11-11T09:30:42.505Z,1.50
2018-11-11T09:33:12.658Z,14.20
2018-11-11T09:35:42.345Z,2.23
2018-11-11T09:38:12.304Z,1.30
2018-11-11T09:40:42.020Z,3.47
2018-11-11T09:43:11.640Z,4.53
2018-11-11T09:45:41.333Z,4.63
2018-11-11T09:48:10.984Z,2.73
2018-11-11T09:50:40.743Z,2.80
2018-11-11T09:53:10.301Z,1.33
2018-11-11T09:55:40.148Z,2.10
2018-11-11T09:58:09.745Z,6.80
2018-11-11T10:00:39.418Z,10.03
2018-11-11T10:03:43.663Z,2.17
2018-11-11T10:06:17.434Z,2.03
2018-11-11T10:08:52.892Z,6.17
2018-11-11T10:11:26.048Z,1.30
2018-11-11T10:14:01.377Z,6.73
2018-11-11T10:16:38.350Z,3.07
2018-11-11T10:19:12.277Z,1.30
2018-11-11T10:21:50.413Z,1.13
2018-11-11T10:24:25.182Z,1.23
2018-11-11T10:28:02.053Z,4.13
2018-11-11T10:30:36.829Z,8.83
2018-11-11T10:33:36.254Z,1.90
2018-11-11T10:36:11.367Z,1.97
2018-11-11T10:38:52.771Z,1.60
2018-11-11T10:41:28.373Z,1.17
2018-11-11T10:44:02.084Z,4.13
2018-11-11T10:46:49.705Z,6.00
2018-11-11T10:49:22.909Z,6.40
2018-11-11T10:51:52.593Z,1.37
2018-11-11T10:54:22.118Z,9.23
2018-11-11T10:56:51.914Z,5.83
2018-11-11T10:59:21.526Z,3.10
2018-11-11T11:01:56.415Z,1.23
2018-11-11T11:04:26.234Z,3.10
2018-11-11T11:07:00.919Z,3.50
2018-11-11T11:09:30.656Z,2.47
2018-11-11T11:12:00.180Z,10.00
2018-11-11T11:14:29.818Z,18.00
2018-11-11T11:16:59.501Z,4.20
2018-11-11T11:19:29.404Z,1.03
2018-11-11T11:21:59.034Z,7.50
2018-11-11T11:24:28.558Z,4.00
2018-11-11T11:26:58.298Z,4.60
2018-11-11T11:29:27.944Z,3.53
2018-11-11T11:31:57.868Z,9.40
2018-11-11T11:34:27.382Z,4.40
2018-11-11T11:36:57.069Z,4.77
2018-11-11T11:39:26.628Z,1.77
2018-11-11T11:41:56.316Z,2.27
2018-11-11T11:44:25.809Z,8.83
2018-11-11T11:46:55.421Z,4.83
2018-11-11T11:49:25.021Z,6.13
2018-11-11T11:51:54.696Z,2.83
2018-11-11T11:54:24.222Z,6.00
2018-11-11T11:56:53.733Z,7.30
2018-11-11T11:59:23.545Z,2.70
2018-11-11T12:01:53.438Z,3.23
2018-11-11T12:04:22.985Z,11.57
2018-11-11T12:06:52.683Z,2.20
2018-11-11T12:09:22.390Z,3.77
2018-11-11T12:11:51.917Z,11.00
2018-11-11T12:14:22.062Z,2.67
2018-11-11T12:16:51.546Z,13.10
2018-11-11T12:19:21.150Z,3.90
2018-11-11T12:21:50.725Z,2.50
2018-11-11T12:24:20.381Z,2.73
2018-11-11T12:26:50.076Z,4.60
2018-11-11T12:29:19.768Z,2.97
2018-11-11T12:31:49.485Z,4.07
2018-11-11T12:34:19.165Z,2.23
2018-11-11T12:36:48.917Z,2.70
2018-11-11T12:39:18.914Z,11.27
2018-11-11T12:41:48.545Z,12.27
2018-11-11T12:44:18.173Z,3.83
2018-11-11T12:46:47.995Z,4.10
2018-11-11T12:49:17.784Z,7.00
2018-11-11T12:51:47.891Z,4.23
2018-11-11T12:54:17.616Z,11.43
2018-11-11T12:56:47.279Z,36.10
2018-11-11T12:59:17.016Z,10.00
2018-11-11T13:01:46.720Z,5.07
2018-11-11T13:04:16.634Z,7.40
2018-11-11T13:06:46.342Z,7.33
2018-11-11T13:09:15.890Z,8.20
2018-11-11T13:11:45.490Z,4.60
2018-11-11T13:14:15.059Z,5.30
2018-11-11T13:16:44.694Z,13.57
2018-11-11T13:19:14.385Z,5.80
2018-11-11T13:21:43.981Z,7.10
2018-11-11T13:24:13.630Z,8.23
2018-11-11T13:26:43.955Z,5.87
2018-11-11T13:29:13.556Z,4.60
2018-11-11T13:31:43.497Z,7.53
2018-11-11T13:34:13.194Z,13.90
2018-11-11T13:36:42.890Z,4.33
2018-11-11T13:39:13.834Z,9.10
2018-11-11T13:41:44.233Z,7.50
2018-11-11T13:44:14.077Z,3.23
2018-11-11T13:46:43.735Z,7.07
2018-11-11T13:49:13.977Z,5.47
2018-11-11T13:51:43.609Z,5.57
2018-11-11T13:54:13.106Z,5.53
2018-11-11T13:56:42.837Z,11.00
2018-11-11T13:59:12.512Z,5.80
2018-11-11T14:01:46.837Z,6.67
2018-11-11T14:04:16.523Z,9.43
2018-11-11T14:06:46.188Z,5.40
2018-11-11T14:09:15.989Z,9.57
2018-11-11T14:11:45.655Z,6.33
2018-11-11T14:14:15.437Z,6.97
2018-11-11T14:16:45.101Z,5.17
2018-11-11T14:19:15.062Z,3.17
2018-11-11T14:21:44.269Z,4.70
2018-11-11T14:24:13.902Z,5.00
2018-11-11T14:26:43.989Z,9.03
2018-11-11T14:29:14.090Z,3.47
2018-11-11T14:31:43.926Z,9.13
2018-11-11T14:34:13.769Z,5.97
2018-11-11T14:36:50.245Z,6.13
2018-11-11T14:39:20.465Z,3.40
2018-11-11T14:41:50.824Z,2.63
2018-11-11T14:44:20.391Z,6.70
2018-11-11T14:46:50.136Z,4.20
2018-11-11T14:49:20.693Z,6.70
2018-11-11T14:51:50.358Z,8.13
2018-11-11T14:54:20.055Z,10.90
2018-11-11T14:56:49.816Z,3.90
2018-11-11T14:59:19.576Z,7.50
2018-11-11T15:01:49.197Z,8.87
2018-11-11T15:04:19.375Z,6.97
2018-11-11T15:06:49.043Z,2.70
2018-11-11T15:09:18.621Z,3.67
2018-11-11T15:11:48.323Z,5.37
2018-11-11T15:14:17.914Z,6.90
2018-11-11T15:16:47.926Z,3.23
2018-11-11T15:19:17.908Z,4.10
2018-11-11T15:21:47.473Z,4.20
2018-11-11T15:24:17.202Z,7.40
2018-11-11T15:26:46.930Z,5.47
2018-11-11T15:29:16.529Z,3.90
2018-11-11T15:31:46.272Z,6.87
2018-11-11T15:34:16.129Z,3.00
2018-11-11T15:36:45.749Z,10.73
2018-11-11T15:39:15.471Z,3.57
2018-11-11T15:41:44.938Z,3.00
2018-11-11T15:44:14.452Z,6.03
2018-11-11T15:46:44.062Z,8.83
2018-11-11T15:49:13.727Z,11.20
2018-11-11T15:51:43.401Z,6.00
2018-11-11T15:54:12.994Z,1.97
2018-11-11T15:56:42.630Z,5.80
2018-11-11T15:59:12.379Z,6.47
2018-11-11T16:01:41.914Z,9.03
2018-11-11T16:04:11.440Z,14.40
2018-11-11T16:06:41.144Z,2.90
2018-11-11T16:09:11.188Z,8.07
2018-11-11T16:11:40.837Z,12.27
2018-11-11T16:14:10.713Z,3.80
2018-11-11T16:16:40.495Z,5.30
2018-11-11T16:19:10.202Z,3.47
2018-11-11T16:21:39.805Z,7.37
2018-11-11T16:24:09.555Z,4.67
2018-11-11T16:26:39.280Z,5.97
2018-11-11T16:29:08.952Z,2.47
2018-11-11T16:31:38.685Z,3.97
2018-11-11T16:34:09.204Z,17.07
2018-11-11T16:36:38.992Z,9.00
2018-11-11T16:39:11.664Z,4.73
2018-11-11T16:41:41.708Z,4.80
2018-11-11T16:44:11.415Z,6.43
2018-11-11T16:46:41.025Z,10.90
2018-11-11T16:49:10.765Z,5.90
2018-11-11T16:51:40.592Z,2.00
2018-11-11T16:54:10.302Z,3.50
2018-11-11T16:56:39.875Z,2.83
2018-11-11T16:59:09.504Z,5.20
2018-11-11T17:01:39.263Z,3.80
2018-11-11T17:04:09.019Z,6.07
2018-11-11T17:06:38.599Z,22.00
2018-11-11T17:09:12.640Z,4.80
2018-11-11T17:11:42.297Z,2.73
2018-11-11T17:14:12.079Z,6.47
2018-11-11T17:16:41.738Z,7.60
2018-11-11T17:19:11.368Z,10.87
2018-11-11T17:21:41.723Z,4.63
2018-11-11T17:24:11.279Z,11.73
2018-11-11T17:26:41.139Z,7.67
2018-11-11T17:29:10.779Z,3.90
2018-11-11T17:31:40.334Z,7.10
2018-11-11T17:34:10.120Z,15.63
2018-11-11T17:36:39.680Z,2.17
2018-11-11T17:39:11.460Z,3.07
2018-11-11T17:41:40.980Z,6.27
2018-11-11T17:44:10.625Z,1.53
2018-11-11T17:46:40.310Z,6.87
2018-11-11T17:49:16.586Z,6.63
2018-11-11T17:51:46.297Z,2.20
2018-11-11T17:54:15.941Z,5.20
2018-11-11T17:56:45.594Z,3.97
2018-11-11T17:59:15.197Z,11.13
2018-11-11T18:01:44.781Z,14.70
2018-11-11T18:04:15.078Z,8.20
2018-11-11T18:06:45.030Z,2.83
2018-11-11T18:09:14.514Z,6.50
2018-11-11T18:11:44.297Z,5.73
2018-11-11T18:14:14.050Z,2.70
2018-11-11T18:16:44.399Z,4.63
2018-11-11T18:19:13.980Z,5.97
2018-11-11T18:21:43.824Z,3.80
2018-11-11T18:24:13.345Z,3.27
2018-11-11T18:26:43.029Z,1.70
2018-11-11T18:29:12.789Z,7.70
2018-11-11T18:31:42.409Z,14.73
2018-11-11T18:34:12.088Z,6.33
2018-11-11T18:36:41.691Z,3.40
2018-11-11T18:39:12.549Z,10.03
2018-11-11T18:41:42.831Z,4.83
2018-11-11T18:44:12.475Z,17.80
2018-11-11T18:46:42.109Z,1.10
2018-11-11T18:49:11.791Z,5.00
2018-11-11T18:51:41.509Z,2.17
2018-11-11T18:54:11.213Z,10.53
2018-11-11T18:56:40.932Z,5.03
2018-11-11T18:59:10.713Z,4.27
2018-11-11T19:01:41.230Z,4.70
2018-11-11T19:04:11.435Z,2.10
2018-11-11T19:06:41.040Z,2.30
2018-11-11T19:09:13.637Z,3.87
2018-11-11T19:11:43.222Z,7.00
2018-11-11T19:14:12.990Z,4.87
2018-11-11T19:16:42.486Z,6.83
2018-11-11T19:19:12.304Z,4.10
2018-11-11T19:21:42.749Z,3.90
2018-11-11T19:24:12.446Z,4.67
2018-11-11T19:26:42.679Z,5.23
2018-11-11T19:29:12.613Z,6.00
2018-11-11T19:31:42.371Z,4.87
2018-11-11T19:34:12.081Z,1.80
2018-11-11T19:36:41.822Z,2.40
2018-11-11T19:39:12.707Z,5.53
2018-11-11T19:41:42.661Z,6.20
2018-11-11T19:44:12.469Z,2.40
2018-11-11T19:46:42.081Z,3.17
2018-11-11T19:49:12.017Z,6.33
2018-11-11T19:51:41.762Z,1.90
2018-11-11T19:54:11.440Z,6.67
2018-11-11T19:56:41.402Z,5.87
2018-11-11T19:59:11.429Z,3.00
2018-11-11T20:01:40.966Z,3.93
2018-11-11T20:04:10.901Z,2.20
2018-11-11T20:06:41.279Z,4.30
2018-11-11T20:09:13.827Z,14.97
2018-11-11T20:11:43.701Z,1.73
2018-11-11T20:14:13.245Z,3.30
2018-11-11T20:16:42.932Z,5.60
2018-11-11T20:19:12.934Z,2.20
2018-11-11T20:21:42.627Z,1.40
2018-11-11T20:24:12.416Z,3.10
2018-11-11T20:26:42.048Z,8.23
2018-11-11T20:29:11.845Z,3.17
2018-11-11T20:31:41.605Z,1.67
2018-11-11T20:34:11.358Z,5.80
2018-11-11T20:36:40.817Z,1.47
2018-11-11T20:39:12.554Z,4.77
2018-11-11T20:41:42.173Z,6.33
2018-11-11T20:44:12.791Z,2.30
2018-11-11T20:46:42.374Z,1.33
2018-11-11T20:49:11.912Z,4.63
2018-11-11T20:51:41.599Z,3.40
2018-11-11T20:54:11.280Z,1.00
2018-11-11T20:56:41.135Z,5.93
2018-11-11T20:59:10.543Z,5.03
2018-11-11T21:01:40.129Z,3.17
2018-11-11T21:04:09.735Z,1.47
2018-11-11T21:06:39.463Z,1.33
2018-11-11T21:09:12.768Z,2.70
2018-11-11T21:11:42.458Z,0.97
2018-11-11T21:14:11.986Z,2.00
2018-11-11T21:16:41.879Z,2.10
2018-11-11T21:19:11.482Z,2.40
2018-11-11T21:21:41.119Z,4.57
2018-11-11T21:24:10.665Z,4.70
2018-11-11T21:26:40.413Z,4.10
2018-11-11T21:29:09.883Z,6.90
2018-11-11T21:31:39.507Z,2.97
2018-11-11T21:34:09.201Z,2.30
2018-11-11T21:36:38.836Z,1.60
2018-11-11T21:39:11.974Z,3.33
2018-11-11T21:41:42.157Z,5.13
2018-11-11T21:44:11.611Z,3.50
2018-11-11T21:46:41.276Z,1.83
2018-11-11T21:49:11.299Z,7.20
2018-11-11T21:51:41.001Z,1.40
2018-11-11T21:54:10.622Z,2.87
2018-11-11T21:56:40.297Z,3.67
2018-11-11T21:59:10.413Z,4.83
2018-11-11T22:01:40.033Z,1.40
2018-11-11T22:04:09.759Z,1.83
2018-11-11T22:06:39.355Z,6.27
2018-11-11T22:09:10.883Z,4.77
2018-11-11T22:11:40.697Z,5.30
2018-11-11T22:14:10.200Z,3.97
2018-11-11T22:16:39.725Z,1.80
2018-11-11T22:19:09.325Z,7.40
2018-11-11T22:21:38.940Z,2.20
2018-11-11T22:24:08.420Z,3.80
2018-11-11T22:26:38.034Z,2.90
2018-11-11T22:29:07.935Z,1.10
2018-11-11T22:31:37.601Z,4.53
2018-11-11T22:34:07.913Z,5.30
2018-11-11T22:36:37.490Z,11.77
2018-11-11T22:39:09.905Z,2.77
2018-11-11T22:41:39.720Z,5.13
2018-11-11T22:44:09.939Z,4.60
2018-11-11T22:46:39.761Z,4.20
2018-11-11T22:49:09.356Z,3.67
2018-11-11T22:51:38.959Z,1.50
2018-11-11T22:54:08.841Z,4.13
2018-11-11T22:56:38.296Z,2.17
2018-11-11T22:59:07.893Z,7.20
2018-11-11T23:01:37.491Z,4.23
2018-11-11T23:04:06.975Z,5.40
2018-11-11T23:06:36.599Z,2.17
2018-11-11T23:09:10.456Z,4.03
2018-11-11T23:11:40.440Z,9.10
2018-11-11T23:14:10.356Z,6.10
2018-11-11T23:16:40.293Z,3.47
2018-11-11T23:19:10.072Z,12.90
2018-11-11T23:21:39.678Z,2.70
2018-11-11T23:24:09.861Z,4.87
2018-11-11T23:26:39.439Z,4.23
2018-11-11T23:29:09.148Z,3.40
2018-11-11T23:31:38.901Z,2.60
2018-11-11T23:34:08.516Z,5.70
2018-11-11T23:36:38.146Z,2.83
2018-11-11T23:39:10.126Z,7.80
2018-11-11T23:41:39.796Z,5.83
2018-11-11T23:44:10.005Z,5.17
2018-11-11T23:46:39.862Z,2.10
2018-11-11T23:49:10.077Z,6.10
2018-11-11T23:51:39.652Z,8.53
2018-11-11T23:54:09.374Z,5.03
2018-11-11T23:56:38.995Z,14.20
2018-11-11T23:59:08.865Z,3.90
